Time;durP1;ratioP1;P1;durP2;ratioP2;P2;SDS_P1;SDS_P2;PMS_P1;PMS_P2;Temp;Humidity;BMP_temperature;BMP_pressure;BME280_temperature;BME280_humidity;BME280_pressure;Samples;Min_cycle;Max_cycle;Signal;HPM_P1;HPM_P2
2022/07/13 06:30:08;;;;;;;1.98;0.70;;;;;;;21.23;45.36;99794.94;1754153;79;21052;-47
2022/07/13 06:32:36;;;;;;;2.72;0.65;;;;;;;21.29;45.04;99784.01;1740739;80;20961;-47
2022/07/13 06:35:03;;;;;;;2.25;0.75;;;;;;;21.28;45.57;99787.58;1734558;80;21048;-46
2022/07/13 06:37:30;;;;;;;2.00;0.60;;;;;;;21.30;45.48;99790.19;1739381;80;20938;-47
2022/07/13 06:39:57;;;;;;;0.90;0.60;;;;;;;21.31;44.68;99792.76;1705763;81;21021;-50
2022/07/13 06:42:24;;;;;;;2.62;0.80;;;;;;;21.35;43.98;99799.66;1706192;83;21420;-50
2022/07/13 06:44:50;;;;;;;8.30;0.90;;;;;;;21.32;44.11;99785.16;1709942;82;21002;-46
2022/07/13 06:47:18;;;;;;;0.62;0.40;;;;;;;21.40;43.78;99795.42;1714364;82;21435;-47
2022/07/13 06:49:45;;;;;;;5.95;0.45;;;;;;;21.47;44.46;99784.84;1711275;81;21525;-47
2022/07/13 06:52:12;;;;;;;1.45;0.70;;;;;;;21.59;45.08;99775.34;1716053;81;20974;-47
2022/07/13 06:54:41;;;;;;;4.62;1.30;;;;;;;21.76;44.12;99775.30;1711185;81;21027;-49
2022/07/13 06:57:08;;;;;;;6.08;0.80;;;;;;;21.90;42.79;99775.39;1707759;81;21555;-50
2022/07/13 06:59:35;;;;;;;14.13;1.00;;;;;;;22.01;42.72;99771.66;1708467;81;21069;-48
2022/07/13 07:02:02;;;;;;;4.60;0.78;;;;;;;22.00;40.95;99757.97;1723363;82;20969;-52
2022/07/13 07:04:29;;;;;;;1.30;1.20;;;;;;;21.92;42.92;99774.00;1726997;82;21397;-49
2022/07/13 07:06:57;;;;;;;4.15;0.70;;;;;;;21.84;41.79;99773.54;1720361;81;20974;-47
2022/07/13 07:09:24;;;;;;;2.17;0.93;;;;;;;21.67;41.35;99783.29;1722609;81;20979;-47
2022/07/13 07:11:50;;;;;;;2.25;0.60;;;;;;;21.47;42.10;99771.06;1724476;82;20939;-48
2022/07/13 07:14:17;;;;;;;3.33;0.88;;;;;;;21.35;42.92;99767.72;1719612;82;21093;-47
2022/07/13 07:16:46;;;;;;;0.70;0.70;;;;;;;21.31;41.47;99775.94;1725844;82;20934;-48
2022/07/13 07:19:13;;;;;;;2.80;0.60;;;;;;;21.35;43.00;99768.20;1722166;82;21572;-51
2022/07/13 07:21:40;;;;;;;4.17;0.55;;;;;;;21.40;43.53;99771.01;1724618;82;20974;-42
2022/07/13 07:24:06;;;;;;;1.80;0.60;;;;;;;21.43;43.23;99768.64;1720682;82;21013;-47
2022/07/13 07:26:33;;;;;;;3.15;0.60;;;;;;;21.39;42.91;99778.57;1725493;82;21033;-47
2022/07/13 07:29:00;;;;;;;1.67;0.53;;;;;;;21.44;44.15;99767.69;1715031;82;21029;-50
2022/07/13 07:31:27;;;;;;;2.92;0.72;;;;;;;21.61;43.77;99757.48;1760074;81;21017;-48
2022/07/13 07:33:53;;;;;;;4.50;0.60;;;;;;;21.81;43.09;99749.77;1757633;81;21046;-48
2022/07/13 07:36:22;;;;;;;2.25;0.40;;;;;;;21.88;42.75;99758.65;1752813;81;20942;-49
2022/07/13 07:38:49;;;;;;;1.40;0.85;;;;;;;21.82;43.06;99762.13;1718609;82;21676;-49
2022/07/13 07:41:16;;;;;;;0.80;0.55;;;;;;;21.74;42.85;99750.09;1716668;82;21012;-48
2022/07/13 07:43:43;;;;;;;2.15;0.42;;;;;;;21.66;42.52;99753.62;1747899;81;21089;-44
2022/07/13 07:46:09;;;;;;;1.27;0.50;;;;;;;21.60;41.74;99765.08;1757468;81;21030;-44
2022/07/13 07:48:36;;;;;;;1.50;0.60;;;;;;;21.54;41.14;99758.76;1759679;81;21112;-46
2022/07/13 07:51:05;;;;;;;3.12;0.75;;;;;;;21.46;42.20;99753.86;1757073;81;21489;-43
2022/07/13 07:53:32;;;;;;;0.60;0.40;;;;;;;21.51;43.49;99756.66;1758597;81;21632;-47
2022/07/13 07:55:59;;;;;;;4.85;0.60;;;;;;;21.70;42.17;99761.84;1737600;81;21080;-44
2022/07/13 07:58:26;;;;;;;9.08;0.60;;;;;;;21.83;41.10;99754.05;1739546;81;21069;-48
2022/07/13 08:00:53;;;;;;;1.55;0.42;;;;;;;21.88;41.91;99751.99;1748622;81;21544;-48
2022/07/13 08:03:20;;;;;;;1.82;0.50;;;;;;;21.76;42.06;99761.52;1752117;81;21041;-48
2022/07/13 08:05:48;;;;;;;0.60;0.60;;;;;;;21.69;42.73;99751.29;1752782;81;21065;-43
2022/07/13 08:08:15;;;;;;;0.50;0.50;;;;;;;21.70;43.26;99747.68;1763614;81;21454;-48
2022/07/13 08:10:42;;;;;;;3.83;0.62;;;;;;;21.73;41.58;99751.48;1756835;81;21529;-42
2022/07/13 08:13:09;;;;;;;1.02;0.53;;;;;;;21.67;40.73;99750.49;1751808;81;21559;-43
2022/07/13 08:15:36;;;;;;;5.58;0.88;;;;;;;21.56;41.72;99747.08;1743140;81;21042;-44
2022/07/13 08:18:03;;;;;;;0.75;0.57;;;;;;;21.49;41.44;99760.33;1748382;81;21126;-42
2022/07/13 08:20:31;;;;;;;1.50;0.65;;;;;;;21.48;42.45;99752.82;1737217;82;21024;-39
2022/07/13 08:22:58;;;;;;;3.83;0.75;;;;;;;21.66;43.02;99754.10;1745510;82;21580;-39
2022/07/13 08:25:24;;;;;;;4.75;1.10;;;;;;;21.96;41.46;99760.41;1735758;82;21049;-40
2022/07/13 08:27:51;;;;;;;2.62;0.70;;;;;;;22.23;41.44;99747.87;1740715;81;21229;-49
2022/07/13 08:30:19;;;;;;;3.50;0.95;;;;;;;22.45;40.19;99732.84;1750176;80;21377;-49
2022/07/13 08:32:46;;;;;;;1.98;0.70;;;;;;;22.61;40.34;99737.65;1769171;80;21536;-49
2022/07/13 08:40:45;;;;;;;4.00;0.80;;;;;;;22.76;39.42;99731.91;1768137;80;28571;-49
2022/07/13 08:43:12;;;;;;;4.65;1.02;;;;;;;22.69;39.96;99730.08;1774787;80;21002;-40
2022/07/13 08:45:41;;;;;;;1.42;1.00;;;;;;;22.62;40.91;99741.20;1774463;80;21049;-49
2022/07/13 08:48:16;;;;;;;4.90;1.10;;;;;;;22.48;41.72;99730.84;1783624;80;21045;-50
2022/07/13 08:50:42;;;;;;;1.35;0.72;;;;;;;22.38;41.90;99731.46;1783459;80;21053;-49
2022/07/13 08:53:09;;;;;;;1.90;0.60;;;;;;;22.28;41.93;99730.67;1782725;80;21063;-50
2022/07/13 08:55:36;;;;;;;1.45;1.00;;;;;;;22.24;41.49;99743.77;1782112;80;21006;-49
2022/07/13 08:58:03;;;;;;;1.02;0.60;;;;;;;22.17;41.49;99732.23;1789341;80;21095;-39
2022/07/13 09:00:29;;;;;;;4.60;0.60;;;;;;;22.16;41.82;99726.05;1784951;80;21025;-39
2022/07/13 09:02:56;;;;;;;9.30;1.00;;;;;;;22.20;41.54;99736.03;1745686;80;21084;-40
2022/07/13 09:05:23;;;;;;;1.57;0.90;;;;;;;22.18;41.56;99732.13;1783595;80;21025;-42
2022/07/13 09:08:08;;;;;;;2.47;0.75;;;;;;;22.18;42.01;99733.94;1783789;80;21029;-40
2022/07/13 09:11:01;;;;;;;1.27;0.78;;;;;;;22.20;41.10;99728.05;1777310;80;21057;-40
2022/07/13 09:13:40;;;;;;;2.87;0.80;;;;;;;22.20;41.54;99720.05;1782659;80;21061;-40
2022/07/13 09:16:19;;;;;;;1.05;0.80;;;;;;;22.17;42.15;99714.91;1779527;80;21088;-49
2022/07/13 09:18:56;;;;;;;2.72;0.70;;;;;;;22.25;41.92;99729.98;1782710;80;21116;-40
2022/07/13 09:21:23;;;;;;;1.12;0.60;;;;;;;22.38;41.87;99731.46;1778204;80;21104;-49
2022/07/13 09:24:01;;;;;;;1.10;0.80;;;;;;;22.48;41.43;99728.66;1741192;81;21017;-49
2022/07/13 09:26:43;;;;;;;4.87;0.98;;;;;;;22.55;41.35;99733.56;1743735;80;21416;-49
2022/07/13 09:29:11;;;;;;;3.65;0.60;;;;;;;22.51;40.76;99725.35;1783262;80;20993;-41
2022/07/13 09:31:55;;;;;;;6.42;0.88;;;;;;;22.39;41.09;99722.55;1776966;80;21033;-40
2022/07/13 09:34:23;;;;;;;6.92;1.10;;;;;;;22.26;41.17;99717.89;1785784;80;21018;-40
2022/07/13 09:37:09;;;;;;;2.27;0.70;;;;;;;22.19;40.74;99741.84;1745147;81;21006;-39
2022/07/13 09:40:00;;;;;;;0.95;0.60;;;;;;;22.13;40.91;99725.34;1747948;81;21098;-40
2022/07/13 09:42:32;;;;;;;0.82;0.70;;;;;;;22.07;41.93;99716.34;1758514;81;20971;-49
2022/07/13 09:47:50;;;;;;;1.95;0.85;;;;;;;22.00;43.04;99738.47;1782633;80;21012;-40
2022/07/13 09:50:17;;;;;;;0.93;0.80;;;;;;;21.95;43.54;99721.41;1786060;80;21034;-39
2022/07/13 09:52:46;;;;;;;2.35;0.75;;;;;;;21.92;43.80;99725.59;1785950;80;21030;-41
2022/07/13 09:55:22;;;;;;;4.40;1.10;;;;;;;21.86;44.23;99722.38;1786142;80;21049;-41
2022/07/13 09:57:52;;;;;;;2.87;0.90;;;;;;;21.81;44.31;99735.12;1785914;80;21093;-41
2022/07/13 10:00:20;;;;;;;3.25;0.80;;;;;;;21.76;44.62;99742.02;1785726;80;21066;-50
2022/07/13 10:02:48;;;;;;;2.60;0.45;;;;;;;21.71;44.21;99744.92;1786071;80;21090;-42
2022/07/13 10:05:18;;;;;;;6.80;0.68;;;;;;;21.60;43.93;99731.34;1782216;80;21021;-50
2022/07/13 10:07:46;;;;;;;4.97;0.60;;;;;;;21.54;44.28;99731.67;1704052;83;21035;-43
2022/07/13 10:10:15;;;;;;;4.40;0.70;;;;;;;21.50;44.44;99733.63;1705918;83;21075;-42
2022/07/13 10:12:43;;;;;;;1.55;0.80;;;;;;;21.51;44.34;99737.14;1713859;84;20987;-40
2022/07/13 10:15:11;;;;;;;4.80;0.90;;;;;;;21.49;44.28;99727.06;1760699;81;21037;-40
2022/07/13 10:17:40;;;;;;;1.85;0.70;;;;;;;21.44;44.37;99735.28;1700626;84;21038;-41
2022/07/13 10:20:12;;;;;;;2.15;0.82;;;;;;;21.35;44.63;99737.60;1763355;81;21034;-42
2022/07/13 10:22:43;;;;;;;;;;;;;;;21.28;45.12;99732.16;1765511;81;20999;-51
